This is the latest recevied weather packets stored in our database for station/object M0UPS-13. If no packets are shown the sender has not sent any weather packets the latest 1 day(s).
| Time | Temp. | Humidity | Pressure | Rain* | Wind** | Luminosity | Snow |
|---|---|---|---|---|---|---|---|
| 1778068203 | 14.44° C | 54% | 1013.4 hPa | 0 mm | - | 835 W/m² | - |
| 1778067903 | 15° C | 50% | 1013.3 hPa | 0 mm | - | 227 W/m² | - |
| 1778067303 | 13.89° C | 56% | 1013.2 hPa | 0 mm | - | 878 W/m² | - |
| 1778066702 | 15° C | 50% | 1013.5 hPa | 0 mm | - | 215 W/m² | - |
| 1778062503 | 13.89° C | 50% | 1013.7 hPa | 0 mm | - | 194 W/m² | - |
| 1778060702 | 14.44° C | 49% | 1013.6 hPa | 0 mm | - | 667 W/m² | - |
| 1778060402 | 14.44° C | 49% | 1013.7 hPa | 0 mm | - | 588 W/m² | - |
| 1778059502 | 13.33° C | 53% | 1013.7 hPa | 0 mm | - | 586 W/m² | - |
| 1778057703 | 12.78° C | 57% | 1013.5 hPa | 0 mm | - | 604 W/m² | - |
| 1778055602 | 12.78° C | 59% | 1013.3 hPa | 0 mm | - | 521 W/m² | - |
| 1778055303 | 12.78° C | 60% | 1013.3 hPa | 0 mm | - | 169 W/m² | - |
| 1778055003 | 12.78° C | 62% | 1013.5 hPa | 0 mm | - | 384 W/m² | - |
| 1778053803 | 10.56° C | 69% | 1013.5 hPa | 0 mm | - | 104 W/m² | - |
| 1778053503 | 10° C | 71% | 1013.5 hPa | 0 mm | - | 306 W/m² | - |
| 1778049603 | 9.44° C | 73% | 1013.2 hPa | 0 mm | - | 130 W/m² | - |
| 1778048102 | 8.89° C | 73% | 1013.2 hPa | 0 mm | - | 82 W/m² | - |
| 1778047502 | 9.44° C | 72% | 1013.4 hPa | 0 mm | - | 73 W/m² | - |
| 1778043603 | 8.33° C | 78% | 1012.8 hPa | 0 mm | - | 17 W/m² | - |
| 1778043302 | 8.33° C | 78% | 1013.1 hPa | 0 mm | - | 15 W/m² | - |
| 1778043002 | 8.33° C | 78% | 1013 hPa | 0 mm | - | 13 W/m² | - |
| 1778040903 | 8.89° C | 77% | 1012.9 hPa | 0 mm | - | 1 W/m² | - |
| 1778038803 | 8.89° C | 74% | 1012.8 hPa | 0 mm | - | 0 W/m² | - |
| 1778037902 | 9.44° C | 72% | 1012.8 hPa | 0 mm | - | 0 W/m² | - |
| 1778036702 | 9.44° C | 75% | 1012.6 hPa | 0 mm | - | 0 W/m² | - |
| 1778034603 | 10.56° C | 75% | 1013 hPa | 0 mm | - | 0 W/m² | - |
* Rain latest hour (hover to see other rain measurements)
** Current wind speed in m/s (hover to see current wind gust speed)